sensor_id;sensor_type;location;lat;lon;timestamp;pressure;altitude;pressure_sealevel;temperature;humidity
9439;BME280;5176;42.622;25.386;2023-05-01T00:01:32;97112.09;;;12.82;100.00
9439;BME280;5176;42.622;25.386;2023-05-01T00:04:01;97066.22;;;12.51;100.00
9439;BME280;5176;42.622;25.386;2023-05-01T00:06:30;97117.25;;;12.83;100.00
9439;BME280;5176;42.622;25.386;2023-05-01T00:09:00;97113.06;;;12.81;100.00
9439;BME280;5176;42.622;25.386;2023-05-01T00:11:29;97109.84;;;12.77;100.00
9439;BME280;5176;42.622;25.386;2023-05-01T00:13:57;97117.47;;;12.80;100.00
9439;BME280;5176;42.622;25.386;2023-05-01T00:16:26;97115.09;;;12.77;100.00
9439;BME280;5176;42.622;25.386;2023-05-01T00:18:57;97123.06;;;12.76;100.00
9439;BME280;5176;42.622;25.386;2023-05-01T00:21:25;97120.91;;;12.70;100.00
9439;BME280;5176;42.622;25.386;2023-05-01T00:23:54;97124.56;;;12.56;100.00
9439;BME280;5176;42.622;25.386;2023-05-01T00:26:23;97127.09;;;12.58;100.00
9439;BME280;5176;42.622;25.386;2023-05-01T00:28:56;97125.06;;;12.61;100.00
9439;BME280;5176;42.622;25.386;2023-05-01T00:31:25;97113.59;;;12.62;100.00
9439;BME280;5176;42.622;25.386;2023-05-01T00:33:53;97111.75;;;12.51;100.00
9439;BME280;5176;42.622;25.386;2023-05-01T00:36:24;97117.06;;;12.39;100.00
9439;BME280;5176;42.622;25.386;2023-05-01T00:38:53;97127.13;;;12.21;100.00
9439;BME280;5176;42.622;25.386;2023-05-01T00:41:22;97118.59;;;11.68;100.00
9439;BME280;5176;42.622;25.386;2023-05-01T00:43:52;97128.94;;;11.58;100.00
9439;BME280;5176;42.622;25.386;2023-05-01T00:46:20;97125.97;;;11.63;100.00
9439;BME280;5176;42.622;25.386;2023-05-01T00:48:51;97134.19;;;11.58;100.00
9439;BME280;5176;42.622;25.386;2023-05-01T00:51:20;97123.97;;;11.66;100.00
9439;BME280;5176;42.622;25.386;2023-05-01T00:53:51;97129.84;;;11.70;100.00
9439;BME280;5176;42.622;25.386;2023-05-01T00:56:20;97139.81;;;11.78;100.00
9439;BME280;5176;42.622;25.386;2023-05-01T00:58:50;97141.38;;;11.80;100.00
9439;BME280;5176;42.622;25.386;2023-05-01T01:01:19;97147.19;;;11.85;100.00
9439;BME280;5176;42.622;25.386;2023-05-01T01:03:49;97132.47;;;11.83;100.00
9439;BME280;5176;42.622;25.386;2023-05-01T01:06:26;97144.88;;;11.81;100.00
9439;BME280;5176;42.622;25.386;2023-05-01T01:09:07;97138.16;;;11.64;100.00
9439;BME280;5176;42.622;25.386;2023-05-01T01:11:47;97151.47;;;11.73;100.00
9439;BME280;5176;42.622;25.386;2023-05-01T01:14:25;97159.13;;;11.77;100.00
9439;BME280;5176;42.622;25.386;2023-05-01T01:16:57;97157.91;;;11.82;100.00
9439;BME280;5176;42.622;25.386;2023-05-01T01:20:01;97166.63;;;11.83;100.00
9439;BME280;5176;42.622;25.386;2023-05-01T01:22:34;97164.94;;;11.82;100.00
9439;BME280;5176;42.622;25.386;2023-05-01T01:25:32;97170.38;;;11.79;100.00
9439;BME280;5176;42.622;25.386;2023-05-01T01:28:23;97173.97;;;11.78;100.00
9439;BME280;5176;42.622;25.386;2023-05-01T01:31:13;97171.00;;;11.69;100.00
9439;BME280;5176;42.622;25.386;2023-05-01T01:34:03;97178.69;;;11.72;100.00
9439;BME280;5176;42.622;25.386;2023-05-01T01:36:45;97167.88;;;11.64;100.00
9439;BME280;5176;42.622;25.386;2023-05-01T01:39:27;97173.75;;;11.68;100.00
9439;BME280;5176;42.622;25.386;2023-05-01T01:41:57;97172.50;;;11.61;100.00
9439;BME280;5176;42.622;25.386;2023-05-01T01:44:32;97173.44;;;11.60;100.00
9439;BME280;5176;42.622;25.386;2023-05-01T01:47:05;97171.03;;;11.31;100.00
9439;BME280;5176;42.622;25.386;2023-05-01T01:49:41;97165.44;;;11.23;100.00
9439;BME280;5176;42.622;25.386;2023-05-01T01:52:13;97163.16;;;11.18;100.00
9439;BME280;5176;42.622;25.386;2023-05-01T01:54:48;97159.97;;;11.13;100.00
9439;BME280;5176;42.622;25.386;2023-05-01T01:57:20;97168.28;;;11.20;100.00
9439;BME280;5176;42.622;25.386;2023-05-01T01:59:50;97165.25;;;11.26;100.00
9439;BME280;5176;42.622;25.386;2023-05-01T02:02:19;97163.16;;;11.31;100.00
9439;BME280;5176;42.622;25.386;2023-05-01T02:04:51;97161.16;;;11.35;100.00
9439;BME280;5176;42.622;25.386;2023-05-01T02:07:23;97154.13;;;11.35;100.00
9439;BME280;5176;42.622;25.386;2023-05-01T02:09:53;97163.78;;;11.35;100.00
9439;BME280;5176;42.622;25.386;2023-05-01T02:12:24;97165.97;;;11.28;100.00
9439;BME280;5176;42.622;25.386;2023-05-01T02:14:54;97170.28;;;11.29;100.00
9439;BME280;5176;42.622;25.386;2023-05-01T02:17:24;97165.44;;;11.23;100.00
9439;BME280;5176;42.622;25.386;2023-05-01T02:19:56;97169.13;;;11.21;100.00
9439;BME280;5176;42.622;25.386;2023-05-01T02:22:25;97178.13;;;11.16;100.00
9439;BME280;5176;42.622;25.386;2023-05-01T02:24:55;97179.59;;;11.08;100.00
9439;BME280;5176;42.622;25.386;2023-05-01T02:27:29;97186.09;;;11.02;100.00
9439;BME280;5176;42.622;25.386;2023-05-01T02:29:59;97176.53;;;11.01;100.00
9439;BME280;5176;42.622;25.386;2023-05-01T02:32:29;97180.94;;;11.01;100.00
9439;BME280;5176;42.622;25.386;2023-05-01T02:34:59;97188.53;;;11.05;100.00
9439;BME280;5176;42.622;25.386;2023-05-01T02:37:28;97188.41;;;11.07;100.00
9439;BME280;5176;42.622;25.386;2023-05-01T02:39:58;97188.53;;;11.05;100.00
9439;BME280;5176;42.622;25.386;2023-05-01T02:42:28;97194.56;;;10.93;100.00
9439;BME280;5176;42.622;25.386;2023-05-01T02:45:01;97190.06;;;10.95;100.00
9439;BME280;5176;42.622;25.386;2023-05-01T02:47:33;97187.41;;;10.82;100.00
9439;BME280;5176;42.622;25.386;2023-05-01T02:50:05;97196.59;;;10.75;100.00
9439;BME280;5176;42.622;25.386;2023-05-01T02:52:35;97198.50;;;10.73;100.00
9439;BME280;5176;42.622;25.386;2023-05-01T02:55:05;97197.66;;;10.73;100.00
9439;BME280;5176;42.622;25.386;2023-05-01T02:57:35;97203.00;;;10.71;100.00
9439;BME280;5176;42.622;25.386;2023-05-01T03:00:05;97201.50;;;10.67;100.00
9439;BME280;5176;42.622;25.386;2023-05-01T03:02:35;97207.03;;;10.77;100.00
9439;BME280;5176;42.622;25.386;2023-05-01T03:05:06;97197.25;;;10.79;100.00
9439;BME280;5176;42.622;25.386;2023-05-01T03:07:35;97209.81;;;10.47;100.00
9439;BME280;5176;42.622;25.386;2023-05-01T03:10:05;97204.06;;;9.99;100.00
9439;BME280;5176;42.622;25.386;2023-05-01T03:12:33;97211.09;;;9.84;100.00
9439;BME280;5176;42.622;25.386;2023-05-01T03:15:02;97213.88;;;9.95;100.00
9439;BME280;5176;42.622;25.386;2023-05-01T03:17:31;97204.63;;;10.04;100.00
9439;BME280;5176;42.622;25.386;2023-05-01T03:20:00;97206.56;;;10.15;100.00
9439;BME280;5176;42.622;25.386;2023-05-01T03:22:33;97200.31;;;10.17;100.00
9439;BME280;5176;42.622;25.386;2023-05-01T03:25:02;97212.97;;;10.10;100.00
9439;BME280;5176;42.622;25.386;2023-05-01T03:27:31;97213.03;;;10.09;100.00
9439;BME280;5176;42.622;25.386;2023-05-01T03:30:00;97222.28;;;10.15;100.00
9439;BME280;5176;42.622;25.386;2023-05-01T03:32:30;97212.47;;;10.18;100.00
9439;BME280;5176;42.622;25.386;2023-05-01T03:34:59;97219.28;;;10.21;100.00
9439;BME280;5176;42.622;25.386;2023-05-01T03:37:28;97217.38;;;10.24;100.00
9439;BME280;5176;42.622;25.386;2023-05-01T03:39:58;97225.69;;;10.31;100.00
9439;BME280;5176;42.622;25.386;2023-05-01T03:42:27;97221.19;;;10.33;100.00
9439;BME280;5176;42.622;25.386;2023-05-01T03:44:55;97219.00;;;10.40;100.00
9439;BME280;5176;42.622;25.386;2023-05-01T03:47:24;97228.75;;;10.38;100.00
9439;BME280;5176;42.622;25.386;2023-05-01T03:49:53;97226.97;;;10.38;100.00
9439;BME280;5176;42.622;25.386;2023-05-01T03:52:22;97232.97;;;10.26;100.00
9439;BME280;5176;42.622;25.386;2023-05-01T03:54:51;97236.22;;;10.15;100.00
9439;BME280;5176;42.622;25.386;2023-05-01T03:57:21;97235.09;;;10.19;100.00
9439;BME280;5176;42.622;25.386;2023-05-01T03:59:50;97238.47;;;10.21;100.00
9439;BME280;5176;42.622;25.386;2023-05-01T04:02:19;97238.31;;;10.10;100.00
9439;BME280;5176;42.622;25.386;2023-05-01T04:04:48;97233.44;;;10.18;100.00
9439;BME280;5176;42.622;25.386;2023-05-01T04:07:17;97241.91;;;10.22;100.00
9439;BME280;5176;42.622;25.386;2023-05-01T04:09:45;97250.09;;;10.31;100.00
9439;BME280;5176;42.622;25.386;2023-05-01T04:12:15;97248.78;;;10.39;100.00
9439;BME280;5176;42.622;25.386;2023-05-01T04:14:45;97251.19;;;10.42;100.00
9439;BME280;5176;42.622;25.386;2023-05-01T04:17:14;97252.78;;;10.44;100.00
9439;BME280;5176;42.622;25.386;2023-05-01T04:19:43;97250.25;;;10.43;100.00
9439;BME280;5176;42.622;25.386;2023-05-01T04:22:13;97257.00;;;10.47;100.00
9439;BME280;5176;42.622;25.386;2023-05-01T04:24:42;97253.44;;;10.48;100.00
9439;BME280;5176;42.622;25.386;2023-05-01T04:27:11;97266.97;;;10.54;100.00
9439;BME280;5176;42.622;25.386;2023-05-01T04:29:40;97258.28;;;10.54;100.00
9439;BME280;5176;42.622;25.386;2023-05-01T04:32:10;97266.78;;;10.72;100.00
9439;BME280;5176;42.622;25.386;2023-05-01T04:34:39;97273.59;;;10.74;100.00
9439;BME280;5176;42.622;25.386;2023-05-01T04:37:09;97266.28;;;10.79;100.00
9439;BME280;5176;42.622;25.386;2023-05-01T04:39:37;97273.25;;;10.93;100.00
9439;BME280;5176;42.622;25.386;2023-05-01T04:42:06;97274.31;;;11.03;100.00
9439;BME280;5176;42.622;25.386;2023-05-01T04:44:35;97276.66;;;11.08;100.00
9439;BME280;5176;42.622;25.386;2023-05-01T04:47:03;97275.13;;;11.18;100.00
9439;BME280;5176;42.622;25.386;2023-05-01T04:49:34;97272.84;;;11.26;100.00
9439;BME280;5176;42.622;25.386;2023-05-01T04:52:03;97265.81;;;11.39;100.00
9439;BME280;5176;42.622;25.386;2023-05-01T04:54:34;97268.88;;;11.46;100.00
9439;BME280;5176;42.622;25.386;2023-05-01T04:57:02;97272.34;;;11.46;100.00
9439;BME280;5176;42.622;25.386;2023-05-01T04:59:31;97276.78;;;11.59;100.00
9439;BME280;5176;42.622;25.386;2023-05-01T05:02:00;97278.78;;;11.68;100.00
9439;BME280;5176;42.622;25.386;2023-05-01T05:04:28;97274.22;;;11.84;100.00
9439;BME280;5176;42.622;25.386;2023-05-01T05:06:58;97282.28;;;11.94;100.00
9439;BME280;5176;42.622;25.386;2023-05-01T05:09:27;97284.91;;;12.07;100.00
9439;BME280;5176;42.622;25.386;2023-05-01T05:11:56;97276.91;;;12.21;100.00
9439;BME280;5176;42.622;25.386;2023-05-01T05:14:25;97282.81;;;12.37;100.00
9439;BME280;5176;42.622;25.386;2023-05-01T05:16:53;97292.34;;;12.51;100.00
9439;BME280;5176;42.622;25.386;2023-05-01T05:19:23;97289.75;;;12.75;100.00
9439;BME280;5176;42.622;25.386;2023-05-01T05:21:52;97304.72;;;12.98;100.00
9439;BME280;5176;42.622;25.386;2023-05-01T05:24:22;97303.16;;;13.20;100.00
9439;BME280;5176;42.622;25.386;2023-05-01T05:26:52;97303.56;;;13.26;100.00
9439;BME280;5176;42.622;25.386;2023-05-01T05:29:21;97306.88;;;13.41;100.00
9439;BME280;5176;42.622;25.386;2023-05-01T05:31:50;97301.97;;;13.48;100.00
9439;BME280;5176;42.622;25.386;2023-05-01T05:34:18;97307.25;;;13.48;100.00
9439;BME280;5176;42.622;25.386;2023-05-01T05:36:47;97314.44;;;13.57;100.00
9439;BME280;5176;42.622;25.386;2023-05-01T05:39:16;97310.06;;;13.69;100.00
9439;BME280;5176;42.622;25.386;2023-05-01T05:41:47;97304.50;;;13.84;100.00
9439;BME280;5176;42.622;25.386;2023-05-01T05:44:16;97310.28;;;14.01;99.96
9439;BME280;5176;42.622;25.386;2023-05-01T05:46:45;97309.09;;;14.16;100.00
9439;BME280;5176;42.622;25.386;2023-05-01T05:49:15;97315.56;;;14.34;97.84
9439;BME280;5176;42.622;25.386;2023-05-01T05:51:44;97315.97;;;14.52;96.60
9439;BME280;5176;42.622;25.386;2023-05-01T05:54:13;97315.94;;;14.75;94.84
9439;BME280;5176;42.622;25.386;2023-05-01T05:56:42;97319.16;;;14.89;92.26
9439;BME280;5176;42.622;25.386;2023-05-01T05:59:12;97317.19;;;15.14;89.71
9439;BME280;5176;42.622;25.386;2023-05-01T06:01:41;97317.00;;;15.38;88.19
9439;BME280;5176;42.622;25.386;2023-05-01T06:04:10;97320.75;;;15.67;86.48
9439;BME280;5176;42.622;25.386;2023-05-01T06:06:41;97319.66;;;15.91;84.00
9439;BME280;5176;42.622;25.386;2023-05-01T06:09:09;97326.19;;;16.07;81.90
9439;BME280;5176;42.622;25.386;2023-05-01T06:11:38;97332.31;;;16.08;79.47
9439;BME280;5176;42.622;25.386;2023-05-01T06:14:07;97333.53;;;16.04;81.38
9439;BME280;5176;42.622;25.386;2023-05-01T06:16:38;97334.56;;;16.13;78.80
9439;BME280;5176;42.622;25.386;2023-05-01T06:19:07;97345.91;;;16.24;79.24
9439;BME280;5176;42.622;25.386;2023-05-01T06:21:38;97336.69;;;16.40;79.13
9439;BME280;5176;42.622;25.386;2023-05-01T06:24:07;97341.00;;;16.41;78.39
9439;BME280;5176;42.622;25.386;2023-05-01T06:26:35;97342.91;;;16.59;76.72
9439;BME280;5176;42.622;25.386;2023-05-01T06:29:04;97344.25;;;16.84;74.86
9439;BME280;5176;42.622;25.386;2023-05-01T06:31:33;97352.69;;;16.99;73.50
9439;BME280;5176;42.622;25.386;2023-05-01T06:34:03;97356.09;;;17.21;71.19
9439;BME280;5176;42.622;25.386;2023-05-01T06:36:32;97352.59;;;17.30;68.89
9439;BME280;5176;42.622;25.386;2023-05-01T06:39:01;97363.22;;;17.49;68.16
9439;BME280;5176;42.622;25.386;2023-05-01T06:41:30;97363.00;;;17.72;67.26
9439;BME280;5176;42.622;25.386;2023-05-01T06:43:59;97368.56;;;17.97;66.29
9439;BME280;5176;42.622;25.386;2023-05-01T06:46:27;97372.75;;;18.10;62.97
9439;BME280;5176;42.622;25.386;2023-05-01T06:48:56;97368.81;;;18.33;63.68
9439;BME280;5176;42.622;25.386;2023-05-01T06:51:27;97372.84;;;18.47;64.46
9439;BME280;5176;42.622;25.386;2023-05-01T06:53:56;97378.53;;;18.52;61.65
9439;BME280;5176;42.622;25.386;2023-05-01T06:56:24;97371.09;;;18.65;61.32
9439;BME280;5176;42.622;25.386;2023-05-01T06:58:53;97375.16;;;18.69;63.05
9439;BME280;5176;42.622;25.386;2023-05-01T07:01:21;97373.09;;;19.00;65.36
9439;BME280;5176;42.622;25.386;2023-05-01T07:03:51;97386.88;;;19.14;62.17
9439;BME280;5176;42.622;25.386;2023-05-01T07:06:20;97378.31;;;19.20;62.15
9439;BME280;5176;42.622;25.386;2023-05-01T07:08:50;97393.50;;;19.27;64.09
9439;BME280;5176;42.622;25.386;2023-05-01T07:11:19;97390.09;;;19.35;58.87
9439;BME280;5176;42.622;25.386;2023-05-01T07:13:49;97397.25;;;19.35;56.65
9439;BME280;5176;42.622;25.386;2023-05-01T07:16:18;97397.16;;;19.26;57.25
9439;BME280;5176;42.622;25.386;2023-05-01T07:18:46;97397.09;;;19.36;55.55
9439;BME280;5176;42.622;25.386;2023-05-01T07:21:15;97400.06;;;19.33;54.25
9439;BME280;5176;42.622;25.386;2023-05-01T07:23:44;97399.50;;;19.29;55.28
9439;BME280;5176;42.622;25.386;2023-05-01T07:26:15;97395.69;;;19.14;56.99
9439;BME280;5176;42.622;25.386;2023-05-01T07:28:43;97400.56;;;18.82;55.59
9439;BME280;5176;42.622;25.386;2023-05-01T07:31:12;97395.09;;;18.83;57.27
9439;BME280;5176;42.622;25.386;2023-05-01T07:33:41;97409.53;;;18.71;54.68
9439;BME280;5176;42.622;25.386;2023-05-01T07:36:10;97403.53;;;18.69;55.37
9439;BME280;5176;42.622;25.386;2023-05-01T07:38:39;97409.84;;;18.68;55.24
9439;BME280;5176;42.622;25.386;2023-05-01T07:41:08;97406.03;;;18.70;54.59
9439;BME280;5176;42.622;25.386;2023-05-01T07:43:38;97410.66;;;18.68;53.34
9439;BME280;5176;42.622;25.386;2023-05-01T07:46:06;97404.50;;;18.58;52.31
9439;BME280;5176;42.622;25.386;2023-05-01T07:48:35;97411.50;;;18.59;51.86
9439;BME280;5176;42.622;25.386;2023-05-01T07:51:04;97409.16;;;18.46;52.63
9439;BME280;5176;42.622;25.386;2023-05-01T07:53:33;97411.09;;;18.54;52.20
9439;BME280;5176;42.622;25.386;2023-05-01T07:56:06;97411.81;;;18.46;52.87
9439;BME280;5176;42.622;25.386;2023-05-01T07:58:35;97408.88;;;18.49;55.02
9439;BME280;5176;42.622;25.386;2023-05-01T08:01:06;97419.47;;;18.49;56.14
9439;BME280;5176;42.622;25.386;2023-05-01T08:03:35;97420.75;;;18.36;56.68
9439;BME280;5176;42.622;25.386;2023-05-01T08:06:04;97412.94;;;18.34;56.39
9439;BME280;5176;42.622;25.386;2023-05-01T08:08:33;97421.63;;;18.27;57.88
9439;BME280;5176;42.622;25.386;2023-05-01T08:11:02;97419.91;;;18.55;60.36
9439;BME280;5176;42.622;25.386;2023-05-01T08:13:30;97419.94;;;19.01;58.99
9439;BME280;5176;42.622;25.386;2023-05-01T08:16:01;97425.16;;;19.48;58.58
9439;BME280;5176;42.622;25.386;2023-05-01T08:18:31;97424.53;;;19.82;55.79
9439;BME280;5176;42.622;25.386;2023-05-01T08:21:00;97430.34;;;20.13;54.29
9439;BME280;5176;42.622;25.386;2023-05-01T08:23:28;97427.94;;;20.46;53.34
9439;BME280;5176;42.622;25.386;2023-05-01T08:25:57;97428.28;;;20.68;53.42
9439;BME280;5176;42.622;25.386;2023-05-01T08:28:26;97437.16;;;21.03;51.78
9439;BME280;5176;42.622;25.386;2023-05-01T08:30:55;97440.25;;;21.25;49.86
9439;BME280;5176;42.622;25.386;2023-05-01T08:33:24;97444.16;;;21.38;48.04
9439;BME280;5176;42.622;25.386;2023-05-01T08:35:55;97437.06;;;21.47;47.79
9439;BME280;5176;42.622;25.386;2023-05-01T08:38:24;97444.66;;;21.92;47.41
9439;BME280;5176;42.622;25.386;2023-05-01T08:40:53;97444.25;;;22.21;47.46
9439;BME280;5176;42.622;25.386;2023-05-01T08:43:24;97454.25;;;22.11;47.58
9439;BME280;5176;42.622;25.386;2023-05-01T08:45:55;97449.03;;;22.01;48.92
9439;BME280;5176;42.622;25.386;2023-05-01T08:48:27;97450.00;;;21.84;49.84
9439;BME280;5176;42.622;25.386;2023-05-01T08:50:59;97451.38;;;21.46;51.40
9439;BME280;5176;42.622;25.386;2023-05-01T08:53:31;97446.72;;;20.88;52.07
9439;BME280;5176;42.622;25.386;2023-05-01T08:56:00;97447.31;;;20.74;53.18
9439;BME280;5176;42.622;25.386;2023-05-01T08:58:34;97451.66;;;20.39;54.33
9439;BME280;5176;42.622;25.386;2023-05-01T09:01:05;97444.00;;;20.54;54.74
9439;BME280;5176;42.622;25.386;2023-05-01T09:03:36;97447.56;;;20.62;51.99
9439;BME280;5176;42.622;25.386;2023-05-01T09:06:08;97455.94;;;20.50;49.79
9439;BME280;5176;42.622;25.386;2023-05-01T09:08:37;97452.50;;;20.39;49.59
9439;BME280;5176;42.622;25.386;2023-05-01T09:11:06;97450.75;;;20.30;48.92
9439;BME280;5176;42.622;25.386;2023-05-01T09:13:35;97452.91;;;20.27;49.91
9439;BME280;5176;42.622;25.386;2023-05-01T09:16:04;97457.31;;;20.18;49.65
9439;BME280;5176;42.622;25.386;2023-05-01T09:18:33;97457.00;;;20.03;52.13
9439;BME280;5176;42.622;25.386;2023-05-01T09:21:03;97465.34;;;19.73;53.71
9439;BME280;5176;42.622;25.386;2023-05-01T09:23:33;97459.56;;;19.50;51.91
9439;BME280;5176;42.622;25.386;2023-05-01T09:26:03;97450.59;;;19.23;50.80
9439;BME280;5176;42.622;25.386;2023-05-01T09:28:41;97463.72;;;19.62;50.48
9439;BME280;5176;42.622;25.386;2023-05-01T09:31:22;97458.50;;;20.06;49.14
9439;BME280;5176;42.622;25.386;2023-05-01T09:33:54;97459.19;;;19.90;49.54
9439;BME280;5176;42.622;25.386;2023-05-01T09:36:24;97465.31;;;20.00;51.09
9439;BME280;5176;42.622;25.386;2023-05-01T09:38:55;97466.13;;;20.01;49.14
9439;BME280;5176;42.622;25.386;2023-05-01T09:41:24;97465.38;;;20.26;46.76
9439;BME280;5176;42.622;25.386;2023-05-01T09:43:54;97473.38;;;20.26;46.27
9439;BME280;5176;42.622;25.386;2023-05-01T09:46:25;97476.00;;;20.80;45.98
9439;BME280;5176;42.622;25.386;2023-05-01T09:48:56;97475.03;;;21.41;43.72
9439;BME280;5176;42.622;25.386;2023-05-01T09:51:27;97475.72;;;22.01;42.63
9439;BME280;5176;42.622;25.386;2023-05-01T09:53:59;97489.91;;;21.94;41.84
9439;BME280;5176;42.622;25.386;2023-05-01T09:56:31;97494.63;;;21.66;42.56
9439;BME280;5176;42.622;25.386;2023-05-01T09:59:14;97497.00;;;20.65;45.80
9439;BME280;5176;42.622;25.386;2023-05-01T10:01:44;97497.16;;;20.63;46.96
9439;BME280;5176;42.622;25.386;2023-05-01T10:04:14;97501.56;;;20.19;47.98
9439;BME280;5176;42.622;25.386;2023-05-01T10:06:43;97501.13;;;20.41;49.93
9439;BME280;5176;42.622;25.386;2023-05-01T10:09:26;97511.09;;;20.57;49.14
9439;BME280;5176;42.622;25.386;2023-05-01T10:11:55;97504.69;;;20.14;49.33
9439;BME280;5176;42.622;25.386;2023-05-01T10:14:25;97502.72;;;19.71;50.27
9439;BME280;5176;42.622;25.386;2023-05-01T10:16:55;97504.50;;;19.43;51.06
9439;BME280;5176;42.622;25.386;2023-05-01T10:19:25;97513.78;;;19.29;50.93
9439;BME280;5176;42.622;25.386;2023-05-01T10:21:53;97505.03;;;19.19;51.02
9439;BME280;5176;42.622;25.386;2023-05-01T10:24:24;97512.19;;;19.09;52.70
9439;BME280;5176;42.622;25.386;2023-05-01T10:26:53;97508.84;;;18.97;52.12
9439;BME280;5176;42.622;25.386;2023-05-01T10:29:23;97508.44;;;18.92;55.89
9439;BME280;5176;42.622;25.386;2023-05-01T10:31:55;97510.28;;;18.63;57.86
9439;BME280;5176;42.622;25.386;2023-05-01T10:34:24;97520.63;;;18.56;59.65
9439;BME280;5176;42.622;25.386;2023-05-01T10:36:57;97500.38;;;18.36;58.16
9439;BME280;5176;42.622;25.386;2023-05-01T10:39:32;97509.88;;;18.29;61.00
9439;BME280;5176;42.622;25.386;2023-05-01T10:42:02;97508.34;;;18.16;65.73
9439;BME280;5176;42.622;25.386;2023-05-01T10:44:31;97511.13;;;18.15;66.14
9439;BME280;5176;42.622;25.386;2023-05-01T10:50:11;97513.03;;;17.84;68.11
9439;BME280;5176;42.622;25.386;2023-05-01T10:53:18;97503.38;;;17.73;65.02
9439;BME280;5176;42.622;25.386;2023-05-01T10:55:48;97502.84;;;17.49;68.36
9439;BME280;5176;42.622;25.386;2023-05-01T10:58:53;97507.78;;;17.63;68.31
9439;BME280;5176;42.622;25.386;2023-05-01T11:01:32;97506.25;;;17.70;61.79
9439;BME280;5176;42.622;25.386;2023-05-01T11:04:03;97515.44;;;17.87;64.15
9439;BME280;5176;42.622;25.386;2023-05-01T11:06:34;97517.94;;;17.88;59.66
9439;BME280;5176;42.622;25.386;2023-05-01T11:09:36;97515.56;;;18.05;60.45
9439;BME280;5176;42.622;25.386;2023-05-01T11:12:08;97510.44;;;18.13;55.40
9439;BME280;5176;42.622;25.386;2023-05-01T11:15:01;97511.16;;;18.34;57.65
9439;BME280;5176;42.622;25.386;2023-05-01T11:17:45;97514.34;;;18.47;53.58
9439;BME280;5176;42.622;25.386;2023-05-01T11:20:48;97518.41;;;18.71;55.96
9439;BME280;5176;42.622;25.386;2023-05-01T11:23:21;97512.91;;;18.92;54.48
9439;BME280;5176;42.622;25.386;2023-05-01T11:26:01;97513.00;;;19.19;54.46
9439;BME280;5176;42.622;25.386;2023-05-01T11:28:35;97513.97;;;19.55;54.60
9439;BME280;5176;42.622;25.386;2023-05-01T11:31:05;97512.00;;;20.30;51.73
9439;BME280;5176;42.622;25.386;2023-05-01T11:33:34;97518.56;;;20.54;46.06
9439;BME280;5176;42.622;25.386;2023-05-01T11:36:03;97518.34;;;20.47;46.64
9439;BME280;5176;42.622;25.386;2023-05-01T11:38:32;97520.59;;;20.42;46.12
9439;BME280;5176;42.622;25.386;2023-05-01T11:41:02;97519.19;;;20.48;46.06
9439;BME280;5176;42.622;25.386;2023-05-01T11:43:32;97528.28;;;20.27;47.10
9439;BME280;5176;42.622;25.386;2023-05-01T11:46:01;97523.94;;;20.26;45.61
9439;BME280;5176;42.622;25.386;2023-05-01T11:48:30;97517.75;;;20.26;46.24
9439;BME280;5176;42.622;25.386;2023-05-01T11:50:58;97518.84;;;20.33;45.81
9439;BME280;5176;42.622;25.386;2023-05-01T11:53:27;97513.66;;;20.31;45.79
9439;BME280;5176;42.622;25.386;2023-05-01T11:55:56;97504.59;;;20.24;45.38
9439;BME280;5176;42.622;25.386;2023-05-01T11:58:33;97501.19;;;20.32;45.92
9439;BME280;5176;42.622;25.386;2023-05-01T12:01:03;97498.16;;;20.27;45.42
9439;BME280;5176;42.622;25.386;2023-05-01T12:03:41;97495.78;;;20.41;45.71
9439;BME280;5176;42.622;25.386;2023-05-01T12:06:11;97489.97;;;20.82;44.77
9439;BME280;5176;42.622;25.386;2023-05-01T12:08:43;97486.81;;;21.12;42.09
9439;BME280;5176;42.622;25.386;2023-05-01T12:11:13;97484.50;;;21.35;42.61
9439;BME280;5176;42.622;25.386;2023-05-01T12:13:43;97487.94;;;21.62;41.36
9439;BME280;5176;42.622;25.386;2023-05-01T12:16:14;97491.22;;;21.90;42.09
9439;BME280;5176;42.622;25.386;2023-05-01T12:18:43;97490.84;;;21.85;40.96
9439;BME280;5176;42.622;25.386;2023-05-01T12:21:14;97476.28;;;21.63;41.22
9439;BME280;5176;42.622;25.386;2023-05-01T12:23:45;97475.47;;;21.28;41.58
9439;BME280;5176;42.622;25.386;2023-05-01T12:26:17;97476.66;;;21.08;41.63
9439;BME280;5176;42.622;25.386;2023-05-01T12:28:57;97468.75;;;21.24;40.80
9439;BME280;5176;42.622;25.386;2023-05-01T12:31:26;97473.63;;;21.71;41.46
9439;BME280;5176;42.622;25.386;2023-05-01T12:33:56;97467.75;;;22.10;45.17
9439;BME280;5176;42.622;25.386;2023-05-01T12:36:27;97468.81;;;22.41;46.33
9439;BME280;5176;42.622;25.386;2023-05-01T12:38:57;97480.28;;;22.66;43.32
9439;BME280;5176;42.622;25.386;2023-05-01T12:41:33;97477.16;;;22.87;40.33
9439;BME280;5176;42.622;25.386;2023-05-01T12:44:17;97481.81;;;22.93;39.72
9439;BME280;5176;42.622;25.386;2023-05-01T12:46:53;97466.59;;;23.02;38.69
9439;BME280;5176;42.622;25.386;2023-05-01T12:49:22;97462.06;;;23.10;39.95
9439;BME280;5176;42.622;25.386;2023-05-01T12:51:53;97467.97;;;22.90;40.47
9439;BME280;5176;42.622;25.386;2023-05-01T12:54:23;97460.09;;;22.96;40.47
9439;BME280;5176;42.622;25.386;2023-05-01T12:56:52;97460.59;;;22.92;39.05
9439;BME280;5176;42.622;25.386;2023-05-01T12:59:23;97457.06;;;23.07;38.85
9439;BME280;5176;42.622;25.386;2023-05-01T13:01:59;97464.59;;;23.04;37.76
9439;BME280;5176;42.622;25.386;2023-05-01T13:04:28;97459.19;;;23.20;37.98
9439;BME280;5176;42.622;25.386;2023-05-01T13:06:57;97454.59;;;23.45;37.18
9439;BME280;5176;42.622;25.386;2023-05-01T13:09:28;97455.22;;;23.55;36.90
9439;BME280;5176;42.622;25.386;2023-05-01T13:11:59;97455.34;;;23.70;38.12
9439;BME280;5176;42.622;25.386;2023-05-01T13:14:34;97453.19;;;23.57;37.86
9439;BME280;5176;42.622;25.386;2023-05-01T13:17:05;97451.34;;;23.58;38.44
9439;BME280;5176;42.622;25.386;2023-05-01T13:19:34;97449.84;;;23.16;39.29
9439;BME280;5176;42.622;25.386;2023-05-01T13:22:04;97452.72;;;22.98;40.28
9439;BME280;5176;42.622;25.386;2023-05-01T13:24:36;97456.25;;;22.58;41.23
9439;BME280;5176;42.622;25.386;2023-05-01T13:27:05;97456.59;;;22.63;41.03
9439;BME280;5176;42.622;25.386;2023-05-01T13:29:37;97456.41;;;22.73;39.85
9439;BME280;5176;42.622;25.386;2023-05-01T13:32:10;97454.50;;;21.92;38.94